Time;durP1;ratioP1;P1;durP2;ratioP2;P2;SDS_P1;SDS_P2;PMS_P1;PMS_P2;Temp;Humidity;BMP_temperature;BMP_pressure;BME280_temperature;BME280_humidity;BME280_pressure;Samples;Min_cycle;Max_cycle;Signal;HPM_P1;HPM_P2
2022/06/26 00:00:50;;;;;;;6.70;2.70;;;;;;;26.39;43.89;98588.56;4994705;28;20461;-77
2022/06/26 00:03:15;;;;;;;5.03;2.50;;;;;;;26.40;44.11;98591.03;4994487;28;20084;-77
2022/06/26 00:05:41;;;;;;;7.05;2.53;;;;;;;26.41;43.96;98586.47;4994473;28;20056;-77
2022/06/26 00:08:07;;;;;;;4.95;2.40;;;;;;;26.38;43.98;98582.41;4976735;28;20195;-77
2022/06/26 00:10:33;;;;;;;3.33;2.30;;;;;;;26.38;43.99;98589.59;4993326;28;20085;-76
2022/06/26 00:12:58;;;;;;;3.70;2.30;;;;;;;26.39;43.45;98591.25;5009331;28;20052;-77
2022/06/26 00:15:24;;;;;;;5.20;2.55;;;;;;;26.35;43.84;98588.22;4993454;28;20098;-77
2022/06/26 00:17:49;;;;;;;4.18;2.60;;;;;;;26.30;43.77;98593.41;4977115;28;20062;-76
2022/06/26 00:20:15;;;;;;;5.45;2.67;;;;;;;26.31;44.01;98595.88;4993259;28;20453;-76
2022/06/26 00:22:41;;;;;;;5.15;2.70;;;;;;;26.28;44.16;98593.63;4994323;28;20034;-77
2022/06/26 00:25:08;;;;;;;6.13;2.30;;;;;;;26.28;44.55;98604.34;4994318;28;20125;-76
2022/06/26 00:27:34;;;;;;;4.32;2.30;;;;;;;26.27;44.93;98607.25;4994071;28;20032;-77
2022/06/26 00:30:00;;;;;;;3.20;2.30;;;;;;;26.24;45.05;98611.16;4993262;28;20041;-77
2022/06/26 00:32:25;;;;;;;2.65;2.10;;;;;;;26.25;44.93;98614.66;5009139;28;20572;-76
2022/06/26 00:34:51;;;;;;;5.07;2.40;;;;;;;26.23;45.75;98609.50;4994164;28;20026;-76
2022/06/26 00:37:16;;;;;;;4.05;2.60;;;;;;;26.17;45.75;98616.59;4994266;28;20034;-76
2022/06/26 00:39:42;;;;;;;3.88;2.70;;;;;;;26.17;46.18;98610.41;4993936;28;20113;-76
2022/06/26 00:42:07;;;;;;;4.10;2.55;;;;;;;26.16;46.71;98616.81;4993796;28;20034;-77
2022/06/26 00:44:33;;;;;;;7.40;2.65;;;;;;;26.10;46.76;98609.66;4993676;28;20030;-77
2022/06/26 00:46:58;;;;;;;6.72;2.50;;;;;;;26.11;47.07;98614.78;4992964;28;20037;-77
2022/06/26 00:49:24;;;;;;;4.30;2.33;;;;;;;26.03;47.11;98612.41;4993836;28;20038;-77
2022/06/26 00:51:53;;;;;;;5.95;2.70;;;;;;;26.03;47.18;98614.25;4993197;28;20140;-77
2022/06/26 00:54:20;;;;;;;4.95;2.72;;;;;;;26.03;46.97;98620.44;4991475;28;20517;-77
2022/06/26 00:56:46;;;;;;;3.50;2.28;;;;;;;26.00;47.15;98612.84;4992946;28;20032;-78
2022/06/26 00:59:11;;;;;;;5.10;2.63;;;;;;;25.98;47.25;98610.41;4975972;28;20034;-77
2022/06/26 01:01:37;;;;;;;3.80;2.55;;;;;;;25.98;47.67;98613.06;4975952;28;20038;-77
2022/06/26 01:04:03;;;;;;;4.70;2.50;;;;;;;25.96;47.47;98615.09;4991762;28;20033;-78
2022/06/26 01:06:29;;;;;;;2.65;2.40;;;;;;;25.96;47.53;98606.25;4991923;28;20022;-78
2022/06/26 01:08:56;;;;;;;5.80;2.35;;;;;;;25.97;47.53;98614.09;4992107;28;20057;-78
2022/06/26 01:11:23;;;;;;;3.55;2.60;;;;;;;25.97;47.19;98606.06;4992163;28;20105;-78
2022/06/26 01:13:50;;;;;;;3.40;2.45;;;;;;;25.99;47.07;98606.66;4992197;28;20045;-78
2022/06/26 01:16:19;;;;;;;4.47;2.88;;;;;;;25.99;47.34;98605.84;4992104;28;20022;-78
2022/06/26 01:18:48;;;;;;;5.72;2.65;;;;;;;26.00;46.94;98605.63;4960458;28;20026;-78
2022/06/26 01:21:14;;;;;;;4.95;2.50;;;;;;;26.02;46.80;98609.97;4992158;28;20093;-78
2022/06/26 01:23:40;;;;;;;3.92;2.30;;;;;;;26.02;46.79;98612.63;4976007;28;20030;-78
2022/06/26 01:26:05;;;;;;;4.22;2.25;;;;;;;26.00;46.84;98610.97;4993379;28;20037;-77
2022/06/26 01:28:31;;;;;;;3.15;2.40;;;;;;;25.99;46.85;98614.69;4975864;28;20046;-77
2022/06/26 01:30:56;;;;;;;6.18;2.58;;;;;;;25.95;46.71;98613.47;4992553;28;20025;-78
2022/06/26 01:33:22;;;;;;;3.45;2.45;;;;;;;25.95;46.89;98612.63;4993151;28;20409;-77
2022/06/26 01:35:47;;;;;;;3.92;2.50;;;;;;;25.91;47.00;98606.91;4992117;28;20034;-78
2022/06/26 01:38:14;;;;;;;6.57;2.60;;;;;;;25.91;47.14;98612.28;4991619;28;20082;-78
2022/06/26 01:40:40;;;;;;;5.07;2.75;;;;;;;25.91;47.13;98611.47;4991781;28;20033;-78
2022/06/26 01:43:06;;;;;;;4.38;2.20;;;;;;;25.90;47.24;98615.16;4991971;28;20109;-78
2022/06/26 01:45:32;;;;;;;7.75;2.60;;;;;;;25.88;47.19;98620.72;4991883;28;20122;-78
2022/06/26 01:47:57;;;;;;;5.70;2.58;;;;;;;25.82;47.45;98606.41;4992827;28;20101;-78
2022/06/26 01:50:23;;;;;;;5.22;2.50;;;;;;;25.83;47.29;98612.56;4991311;28;20674;-78
2022/06/26 01:52:48;;;;;;;5.72;2.47;;;;;;;25.78;47.46;98615.88;4993030;28;20043;-78
2022/06/26 01:55:14;;;;;;;4.60;2.38;;;;;;;25.78;47.60;98621.22;4975408;28;20042;-78
2022/06/26 01:57:39;;;;;;;4.88;2.58;;;;;;;25.80;47.66;98621.00;4991583;28;20030;-78
2022/06/26 02:00:06;;;;;;;5.05;2.50;;;;;;;25.81;47.12;98612.78;4993115;28;20038;-78
2022/06/26 02:02:31;;;;;;;4.18;2.47;;;;;;;25.78;47.40;98618.56;4975044;28;20042;-78
2022/06/26 02:04:57;;;;;;;4.35;2.58;;;;;;;25.78;47.04;98615.88;4975764;28;20474;-78
2022/06/26 02:07:22;;;;;;;5.10;2.50;;;;;;;25.78;47.20;98621.22;4990839;28;20038;-79
2022/06/26 02:15:16;;;;;;;4.45;3.03;;;;;;;25.76;47.39;98625.16;4991823;28;20041;-77
2022/06/26 02:17:41;;;;;;;2.83;2.33;;;;;;;25.73;47.34;98620.22;4991590;28;20023;-78
2022/06/26 02:20:07;;;;;;;4.22;2.35;;;;;;;25.68;47.51;98612.91;4992645;28;20034;-78
2022/06/26 02:22:33;;;;;;;3.65;2.50;;;;;;;25.70;47.45;98618.84;4959443;28;20484;-77
2022/06/26 02:25:00;;;;;;;4.18;2.40;;;;;;;25.69;47.45;98619.84;4991019;28;20034;-78
2022/06/26 02:27:26;;;;;;;4.72;2.53;;;;;;;25.68;47.32;98625.41;4990791;28;20026;-78
2022/06/26 02:29:51;;;;;;;3.65;2.40;;;;;;;25.70;47.62;98626.03;4974444;28;20038;-78
2022/06/26 02:32:17;;;;;;;6.28;2.50;;;;;;;25.68;47.47;98622.75;4974549;28;20041;-77
2022/06/26 02:34:43;;;;;;;4.25;2.40;;;;;;;25.65;47.40;98613.34;4991837;28;20512;-76
2022/06/26 02:37:08;;;;;;;4.13;2.33;;;;;;;25.67;47.18;98619.28;4974503;28;20030;-76
2022/06/26 02:39:34;;;;;;;4.32;2.17;;;;;;;25.66;47.32;98625.63;4990834;28;20069;-74
2022/06/26 02:41:59;;;;;;;4.38;2.55;;;;;;;25.67;47.42;98621.94;4993806;28;20038;-76
2022/06/26 02:44:25;;;;;;;5.60;2.42;;;;;;;25.69;47.22;98630.56;4996142;28;20030;-76
2022/06/26 02:46:50;;;;;;;3.78;2.42;;;;;;;25.72;47.12;98626.63;4978136;28;20498;-76
2022/06/26 02:49:16;;;;;;;3.95;2.30;;;;;;;25.74;47.33;98627.22;4978589;28;20122;-76
2022/06/26 02:51:41;;;;;;;3.92;2.60;;;;;;;25.76;47.16;98630.50;4994815;28;20034;-78
2022/06/26 02:54:08;;;;;;;6.32;2.38;;;;;;;25.76;47.34;98631.34;4978743;28;20066;-76
2022/06/26 02:56:34;;;;;;;6.13;2.60;;;;;;;25.77;47.06;98634.81;4994936;28;20041;-78
2022/06/26 02:59:00;;;;;;;4.70;2.63;;;;;;;25.79;47.26;98636.25;4994917;28;20030;-78
2022/06/26 03:01:25;;;;;;;3.75;2.50;;;;;;;25.81;47.18;98631.50;4994672;28;20533;-76
2022/06/26 03:03:50;;;;;;;4.22;2.60;;;;;;;25.81;47.27;98628.00;4994700;28;20030;-76
2022/06/26 03:06:16;;;;;;;2.60;2.30;;;;;;;25.86;47.10;98636.19;4978159;28;20034;-76
2022/06/26 03:08:41;;;;;;;3.67;2.70;;;;;;;25.83;46.94;98629.41;4995650;28;20108;-76
2022/06/26 03:11:07;;;;;;;5.00;2.80;;;;;;;25.88;46.79;98634.09;4995747;28;20029;-78
2022/06/26 03:13:32;;;;;;;4.90;2.53;;;;;;;25.89;46.84;98625.06;4994449;28;20125;-78
2022/06/26 03:15:58;;;;;;;3.95;2.47;;;;;;;25.91;46.91;98638.19;4994476;28;20489;-78
2022/06/26 03:18:23;;;;;;;4.30;2.42;;;;;;;25.93;46.83;98633.44;4995587;28;20545;-76
2022/06/26 03:20:49;;;;;;;4.25;2.70;;;;;;;26.06;46.80;98635.22;4994749;28;20034;-77
2022/06/26 03:23:14;;;;;;;3.22;2.78;;;;;;;26.23;46.15;98635.47;4978228;28;20042;-76
2022/06/26 03:25:40;;;;;;;4.13;2.50;;;;;;;26.32;46.07;98639.50;4994340;28;20027;-76
2022/06/26 03:28:05;;;;;;;3.88;2.80;;;;;;;26.27;45.84;98636.66;4995291;28;20023;-77
2022/06/26 03:30:31;;;;;;;4.43;2.80;;;;;;;26.29;46.40;98646.09;4994284;28;20022;-77
2022/06/26 03:32:56;;;;;;;5.70;2.72;;;;;;;26.35;46.36;98649.75;4994138;28;20084;-77
2022/06/26 03:35:22;;;;;;;3.53;2.60;;;;;;;26.36;46.33;98657.56;4993785;28;20525;-77
2022/06/26 03:37:47;;;;;;;3.30;2.35;;;;;;;26.32;46.73;98652.88;4993196;28;20037;-77
2022/06/26 03:40:13;;;;;;;5.63;2.75;;;;;;;26.30;47.00;98657.63;4977083;28;20110;-77
2022/06/26 03:42:39;;;;;;;4.18;2.65;;;;;;;26.26;46.90;98661.78;4977053;28;20039;-77
2022/06/26 03:45:05;;;;;;;4.53;2.60;;;;;;;26.21;47.18;98659.75;4976152;28;20073;-77
2022/06/26 03:47:30;;;;;;;4.07;2.83;;;;;;;26.19;47.32;98659.16;4977053;28;20030;-77
2022/06/26 03:49:56;;;;;;;5.18;2.78;;;;;;;26.14;47.54;98656.31;4995159;28;20034;-78
2022/06/26 03:52:22;;;;;;;3.70;2.65;;;;;;;26.08;47.81;98654.53;4994365;28;20070;-78
2022/06/26 03:54:47;;;;;;;6.57;2.90;;;;;;;26.07;48.17;98660.94;4993739;28;20057;-78
2022/06/26 03:57:13;;;;;;;6.15;2.80;;;;;;;26.05;47.98;98668.34;4993720;28;20478;-78
2022/06/26 03:59:38;;;;;;;6.80;3.20;;;;;;;26.00;48.37;98672.50;4993782;28;20027;-78
2022/06/26 04:02:04;;;;;;;6.78;2.95;;;;;;;25.96;48.40;98667.78;4977054;28;20034;-78
2022/06/26 04:04:29;;;;;;;3.75;2.53;;;;;;;25.93;48.39;98673.56;4977539;28;20033;-79
2022/06/26 04:06:55;;;;;;;3.90;2.70;;;;;;;25.91;48.37;98679.13;4994577;28;20037;-79
2022/06/26 04:09:20;;;;;;;5.88;3.10;;;;;;;25.91;48.52;98680.97;4993239;28;20057;-79
2022/06/26 04:11:46;;;;;;;4.85;2.60;;;;;;;25.90;48.54;98677.50;4993279;28;20028;-79
2022/06/26 04:14:13;;;;;;;6.50;3.10;;;;;;;25.90;48.67;98674.00;4993199;28;20046;-78
2022/06/26 04:16:38;;;;;;;4.03;3.10;;;;;;;25.95;48.34;98687.50;4960555;28;20369;-79
2022/06/26 04:19:04;;;;;;;4.45;2.72;;;;;;;25.95;48.81;98679.50;4960470;28;20058;-79
2022/06/26 04:21:29;;;;;;;6.40;2.90;;;;;;;25.97;48.96;98677.47;4994278;28;20035;-70
2022/06/26 04:23:55;;;;;;;5.40;2.65;;;;;;;26.05;49.59;98687.09;4994496;28;20033;-70
2022/06/26 04:26:20;;;;;;;74.03;4.13;;;;;;;26.14;49.48;98680.38;4975944;28;20457;-70
2022/06/26 04:28:46;;;;;;;27.27;3.25;;;;;;;26.15;49.47;98682.03;4993035;28;20485;-69
2022/06/26 04:31:11;;;;;;;15.07;3.08;;;;;;;26.19;49.67;98693.94;4976301;28;20042;-69
2022/06/26 04:33:37;;;;;;;12.95;3.00;;;;;;;26.23;49.01;98707.69;4993851;28;20042;-70
2022/06/26 04:36:02;;;;;;;10.90;2.90;;;;;;;26.22;49.04;98703.38;4994103;28;20453;-70
2022/06/26 04:38:28;;;;;;;9.88;2.95;;;;;;;26.23;49.46;98708.50;4992450;28;20134;-70
2022/06/26 04:40:53;;;;;;;9.45;2.83;;;;;;;26.27;48.72;98706.22;5011393;28;20029;-70
2022/06/26 04:43:19;;;;;;;6.30;2.65;;;;;;;26.28;48.36;98700.66;5011275;28;20034;-69
2022/06/26 04:45:44;;;;;;;3.63;2.70;;;;;;;26.32;48.18;98706.38;5011446;28;20056;-69
2022/06/26 04:48:10;;;;;;;7.57;2.55;;;;;;;26.37;48.58;98709.22;5012502;28;20673;-69
2022/06/26 04:50:35;;;;;;;9.35;2.65;;;;;;;26.38;48.49;98702.81;5011009;28;20065;-69
2022/06/26 04:53:01;;;;;;;5.35;2.85;;;;;;;26.45;48.84;98714.28;5011111;28;20033;-70
2022/06/26 04:55:26;;;;;;;5.50;2.63;;;;;;;26.49;48.50;98712.81;5011451;28;20048;-70
2022/06/26 04:57:52;;;;;;;4.85;2.90;;;;;;;26.50;48.42;98703.75;5011670;28;20109;-70
2022/06/26 05:00:17;;;;;;;5.55;3.17;;;;;;;26.57;48.70;98710.84;5010858;28;20472;-70
2022/06/26 05:02:43;;;;;;;3.95;2.55;;;;;;;26.57;48.67;98703.66;5010957;28;20037;-69
2022/06/26 05:05:08;;;;;;;5.53;2.72;;;;;;;26.60;48.44;98716.63;5010069;28;20039;-69
2022/06/26 05:07:34;;;;;;;5.88;2.88;;;;;;;26.59;48.67;98704.25;5010926;28;20104;-70
2022/06/26 05:10:00;;;;;;;3.78;2.90;;;;;;;26.56;48.75;98709.25;4994427;28;20046;-70
2022/06/26 05:12:26;;;;;;;9.00;2.80;;;;;;;26.61;49.39;98712.06;5010960;28;20062;-69
2022/06/26 05:14:52;;;;;;;5.78;2.80;;;;;;;26.66;49.51;98715.75;5010980;28;20108;-68
2022/06/26 05:17:17;;;;;;;5.82;3.03;;;;;;;26.67;48.97;98712.03;5010597;28;20116;-67
2022/06/26 05:19:42;;;;;;;8.25;2.78;;;;;;;26.71;48.64;98712.41;4994734;28;20030;-67
2022/06/26 05:22:08;;;;;;;6.43;2.58;;;;;;;26.70;48.29;98708.09;5010933;28;20033;-68
2022/06/26 05:24:34;;;;;;;6.38;2.78;;;;;;;26.73;48.58;98715.69;4994504;28;20485;-68
2022/06/26 05:26:59;;;;;;;4.40;2.50;;;;;;;26.74;48.55;98711.97;4994335;28;20025;-69
2022/06/26 05:29:25;;;;;;;3.80;2.65;;;;;;;26.79;48.17;98716.63;5011046;28;20029;-68
2022/06/26 05:31:51;;;;;;;4.28;2.72;;;;;;;26.82;48.57;98719.69;4993957;28;20512;-71
2022/06/26 05:34:16;;;;;;;4.15;2.80;;;;;;;26.90;47.99;98714.03;4994052;28;20041;-70
2022/06/26 05:36:42;;;;;;;5.22;2.97;;;;;;;27.36;46.80;98709.19;5010199;28;20044;-70
2022/06/26 05:39:07;;;;;;;5.32;2.70;;;;;;;27.55;46.38;98719.84;5011421;28;20105;-70
2022/06/26 05:41:33;;;;;;;5.43;2.63;;;;;;;27.51;46.33;98719.47;5010846;28;20025;-70
2022/06/26 05:43:58;;;;;;;6.15;2.65;;;;;;;27.55;46.53;98728.72;5009929;28;20041;-71
2022/06/26 05:46:24;;;;;;;4.15;2.67;;;;;;;27.55;46.44;98728.72;4993872;28;20064;-71
2022/06/26 05:48:49;;;;;;;5.18;2.92;;;;;;;27.62;46.46;98728.59;4994154;28;20084;-71
2022/06/26 05:51:15;;;;;;;4.43;2.72;;;;;;;27.62;46.50;98734.78;5010245;28;20088;-68
2022/06/26 05:53:40;;;;;;;3.63;2.58;;;;;;;27.67;45.76;98733.28;5011572;28;20034;-69
2022/06/26 05:56:06;;;;;;;8.20;2.70;;;;;;;27.68;45.95;98737.63;5010710;28;20025;-70
2022/06/26 05:58:31;;;;;;;5.53;2.55;;;;;;;27.74;44.83;98748.25;4994094;28;20069;-69
2022/06/26 06:00:57;;;;;;;4.72;2.60;;;;;;;27.78;44.79;98748.59;5010290;28;20033;-70
2022/06/26 06:03:22;;;;;;;7.60;2.97;;;;;;;27.89;44.33;98755.84;5012147;28;20038;-69
2022/06/26 06:05:48;;;;;;;4.72;2.63;;;;;;;28.31;43.01;98741.63;5010159;28;20497;-69
2022/06/26 06:08:13;;;;;;;4.45;2.50;;;;;;;28.53;41.92;98755.28;5010320;28;20103;-69
2022/06/26 06:10:39;;;;;;;6.75;2.70;;;;;;;29.21;40.12;98748.44;5011309;28;20021;-71
2022/06/26 06:13:04;;;;;;;3.70;2.38;;;;;;;29.31;40.01;98750.50;5010504;28;20065;-69
2022/06/26 06:15:30;;;;;;;5.15;2.50;;;;;;;29.36;39.58;98753.28;5011847;28;20057;-71
2022/06/26 06:17:55;;;;;;;5.95;2.90;;;;;;;29.58;39.39;98750.75;5014759;28;20432;-70
2022/06/26 06:20:22;;;;;;;3.50;2.50;;;;;;;29.98;38.63;98748.25;5014307;28;20510;-72
2022/06/26 06:22:51;;;;;;;3.90;2.33;;;;;;;30.09;38.16;98744.66;4997742;28;20034;-70
2022/06/26 06:25:17;;;;;;;4.85;2.67;;;;;;;30.06;38.37;98748.66;5014251;28;20034;-70
2022/06/26 06:27:42;;;;;;;5.75;2.70;;;;;;;30.08;38.09;98751.91;5013677;28;20492;-73
2022/06/26 06:30:09;;;;;;;4.38;2.92;;;;;;;30.06;38.15;98743.28;5013836;28;20025;-69
2022/06/26 06:32:35;;;;;;;4.55;2.90;;;;;;;30.00;38.30;98738.88;5013725;28;20034;-75
2022/06/26 06:35:01;;;;;;;5.13;3.00;;;;;;;29.98;38.54;98746.34;5014961;28;20513;-73
2022/06/26 06:37:26;;;;;;;8.82;3.15;;;;;;;30.11;39.11;98740.66;4997470;28;20112;-71
2022/06/26 06:39:52;;;;;;;5.43;3.28;;;;;;;30.53;37.93;98741.31;5014697;28;20091;-71
2022/06/26 06:42:17;;;;;;;4.80;2.80;;;;;;;32.50;34.32;98730.47;5014884;28;20402;-72
2022/06/26 06:44:43;;;;;;;6.95;2.72;;;;;;;33.61;32.17;98733.09;5014628;28;20030;-71
2022/06/26 06:47:08;;;;;;;7.15;2.83;;;;;;;34.73;30.22;98728.72;5014942;28;20111;-72
2022/06/26 06:49:34;;;;;;;8.23;2.90;;;;;;;35.19;29.11;98725.00;5013390;28;20042;-72
2022/06/26 06:51:59;;;;;;;3.72;2.58;;;;;;;35.19;29.08;98726.91;5013370;28;20104;-69
2022/06/26 06:54:25;;;;;;;5.82;2.55;;;;;;;36.14;27.96;98717.59;5014668;28;20116;-72
2022/06/26 06:56:51;;;;;;;4.05;2.70;;;;;;;35.71;28.95;98720.09;5014691;28;20062;-71
2022/06/26 06:59:16;;;;;;;7.00;2.58;;;;;;;35.69;28.54;98716.84;5013154;28;20030;-72
2022/06/26 07:01:42;;;;;;;6.85;2.63;;;;;;;35.99;28.30;98717.72;5015154;28;20062;-72
2022/06/26 07:04:07;;;;;;;6.70;2.80;;;;;;;36.99;26.85;98714.53;5013125;28;20029;-72
2022/06/26 07:06:33;;;;;;;3.70;2.22;;;;;;;38.00;25.56;98711.44;5013260;28;20486;-73
2022/06/26 07:08:58;;;;;;;3.40;2.05;;;;;;;38.76;24.89;98720.44;5012971;28;20053;-73
2022/06/26 07:11:24;;;;;;;3.72;2.30;;;;;;;39.21;23.91;98715.94;5013240;28;20057;-71
2022/06/26 07:13:49;;;;;;;7.90;2.17;;;;;;;38.82;24.35;98711.84;5013370;28;20404;-72
2022/06/26 07:16:16;;;;;;;6.00;2.10;;;;;;;38.40;24.89;98718.38;5014283;28;20037;-72
2022/06/26 07:18:41;;;;;;;4.57;2.05;;;;;;;38.13;25.19;98715.28;5013166;28;20032;-72
2022/06/26 07:21:07;;;;;;;3.75;2.20;;;;;;;37.69;25.91;98713.84;5013015;28;20030;-72
2022/06/26 07:23:33;;;;;;;3.70;2.20;;;;;;;37.40;26.45;98714.81;4997083;28;20112;-72
2022/06/26 07:25:59;;;;;;;3.30;2.40;;;;;;;37.15;26.88;98713.25;4996482;28;20030;-71
2022/06/26 07:28:24;;;;;;;4.15;1.92;;;;;;;37.13;26.64;98712.69;5011194;28;20506;-73
2022/06/26 07:30:50;;;;;;;6.03;2.30;;;;;;;37.51;26.61;98711.94;4996533;28;20508;-72
2022/06/26 07:36:00;;;;;;;7.28;2.38;;;;;;;38.30;25.30;98714.75;4999381;28;20045;-78
2022/06/26 07:38:25;;;;;;;6.45;2.22;;;;;;;38.61;25.13;98710.63;5013687;28;20425;-75
2022/06/26 07:40:52;;;;;;;3.53;1.90;;;;;;;38.86;24.79;98715.59;5012177;28;20038;-74
2022/06/26 07:43:17;;;;;;;5.30;2.05;;;;;;;39.01;24.04;98711.72;4996705;28;20040;-75
2022/06/26 07:45:43;;;;;;;4.53;2.30;;;;;;;39.10;24.29;98708.31;5012308;28;20034;-75
2022/06/26 07:48:08;;;;;;;2.90;2.00;;;;;;;39.17;24.05;98709.50;5012783;28;20033;-74
2022/06/26 07:50:34;;;;;;;9.70;2.10;;;;;;;39.22;24.54;98712.13;5011227;28;20033;-75
2022/06/26 07:52:59;;;;;;;4.65;2.13;;;;;;;39.30;24.10;98717.94;5010153;28;20469;-74
2022/06/26 07:55:25;;;;;;;5.20;2.15;;;;;;;39.34;23.92;98708.81;5011528;28;20473;-75
2022/06/26 07:57:50;;;;;;;8.05;2.15;;;;;;;39.39;23.77;98719.63;4993825;28;20065;-75
2022/06/26 08:00:16;;;;;;;5.13;1.80;;;;;;;39.42;24.03;98718.22;5010466;28;20030;-75
2022/06/26 08:02:41;;;;;;;6.55;2.00;;;;;;;39.52;23.70;98714.44;4977953;28;20469;-74
2022/06/26 08:05:07;;;;;;;3.83;2.00;;;;;;;39.62;23.77;98708.75;4978999;28;20532;-74
2022/06/26 08:07:32;;;;;;;4.20;2.10;;;;;;;39.68;23.74;98715.72;5012942;28;20033;-75
2022/06/26 08:09:58;;;;;;;2.72;1.60;;;;;;;39.50;24.09;98719.41;4995829;28;20026;-75
2022/06/26 08:12:23;;;;;;;2.95;1.63;;;;;;;39.18;24.20;98710.31;5011482;28;20468;-77
2022/06/26 08:14:49;;;;;;;5.15;1.92;;;;;;;39.06;24.31;98713.50;5011626;28;20108;-74
2022/06/26 08:17:14;;;;;;;2.35;1.73;;;;;;;38.69;24.72;98723.56;5011967;28;20092;-72
2022/06/26 08:19:43;;;;;;;5.38;1.95;;;;;;;38.60;25.04;98720.69;5012193;28;20050;-72
2022/06/26 08:22:09;;;;;;;5.07;2.28;;;;;;;38.71;25.04;98719.44;5012010;28;20244;-73
2022/06/26 08:24:36;;;;;;;10.15;1.98;;;;;;;38.24;25.66;98721.41;5011377;28;20135;-75
2022/06/26 08:27:02;;;;;;;14.50;3.60;;;;;;;37.72;26.13;98713.25;5012481;28;20026;-75
2022/06/26 08:29:27;;;;;;;6.80;2.22;;;;;;;37.22;26.68;98713.69;4995548;28;20032;-77
2022/06/26 08:31:53;;;;;;;8.55;2.47;;;;;;;36.80;27.25;98717.22;5012165;28;20034;-76
2022/06/26 08:34:19;;;;;;;4.95;1.90;;;;;;;36.46;27.62;98718.94;5013370;28;20037;-76
2022/06/26 08:36:44;;;;;;;5.88;2.28;;;;;;;36.13;28.04;98710.53;4995096;28;20061;-76
2022/06/26 08:39:10;;;;;;;5.45;2.03;;;;;;;35.90;28.52;98714.00;5011089;28;20107;-75
2022/06/26 08:41:39;;;;;;;5.78;2.28;;;;;;;35.61;29.07;98717.44;5012800;28;20252;-76
2022/06/26 08:44:05;;;;;;;7.35;2.78;;;;;;;35.23;29.56;98707.06;4995132;28;20038;-75
2022/06/26 08:46:31;;;;;;;11.13;2.72;;;;;;;34.96;29.95;98716.47;5011060;28;20072;-74
2022/06/26 08:48:57;;;;;;;6.18;2.20;;;;;;;34.65;30.07;98715.72;4995148;28;20083;-74
2022/06/26 08:51:23;;;;;;;5.32;2.22;;;;;;;34.29;30.59;98721.22;4995154;28;20057;-75
2022/06/26 08:53:48;;;;;;;3.65;2.10;;;;;;;33.95;31.34;98721.75;4994950;28;20497;-80
2022/06/26 08:56:14;;;;;;;5.50;2.28;;;;;;;33.72;32.13;98715.00;5011445;28;20124;-76
2022/06/26 08:58:39;;;;;;;4.95;2.72;;;;;;;33.51;32.46;98719.53;5011293;28;20021;-76
2022/06/26 09:01:05;;;;;;;4.90;2.30;;;;;;;33.51;32.40;98725.78;4994373;28;20037;-75
2022/06/26 09:03:32;;;;;;;5.00;2.40;;;;;;;33.64;32.55;98726.34;5010857;28;20034;-74
2022/06/26 09:05:57;;;;;;;4.40;2.20;;;;;;;33.79;32.46;98729.06;4994957;28;20084;-75
2022/06/26 09:08:25;;;;;;;4.22;1.90;;;;;;;33.70;32.37;98728.81;4993868;28;20517;-77
2022/06/26 09:10:50;;;;;;;6.47;2.83;;;;;;;33.67;31.99;98723.91;5011369;28;20469;-74
2022/06/26 09:13:16;;;;;;;6.53;2.40;;;;;;;33.59;31.40;98720.88;5011009;28;20065;-75
2022/06/26 09:15:42;;;;;;;6.22;2.17;;;;;;;33.71;31.73;98727.69;4994442;28;20038;-76
2022/06/26 09:18:09;;;;;;;4.93;2.22;;;;;;;33.91;31.42;98723.41;5010994;28;20501;-74
2022/06/26 09:20:36;;;;;;;2.88;2.03;;;;;;;33.78;31.56;98713.09;5010806;28;20120;-74
2022/06/26 09:23:02;;;;;;;4.57;2.08;;;;;;;33.80;31.24;98724.47;5010619;28;20045;-75
2022/06/26 09:25:35;;;;;;;4.68;2.30;;;;;;;33.87;31.11;98717.72;4994864;28;20026;-74
2022/06/26 09:28:06;;;;;;;6.18;2.42;;;;;;;33.70;32.83;98707.16;5015292;28;20585;-77
2022/06/26 09:30:31;;;;;;;6.47;2.08;;;;;;;33.45;32.76;98715.22;5013225;28;20502;-76
2022/06/26 09:32:57;;;;;;;6.25;2.22;;;;;;;33.24;33.14;98715.16;5011983;28;20036;-76
2022/06/26 09:35:22;;;;;;;4.93;2.28;;;;;;;33.05;33.38;98711.28;5012122;28;20026;-77
2022/06/26 09:37:48;;;;;;;5.20;2.40;;;;;;;32.82;33.48;98708.75;4978533;28;20034;-77
2022/06/26 09:40:15;;;;;;;6.55;2.10;;;;;;;32.66;33.78;98703.53;5010476;28;20413;-78
2022/06/26 09:42:40;;;;;;;5.18;2.47;;;;;;;32.64;33.95;98707.31;4995406;28;20046;-77
2022/06/26 09:45:08;;;;;;;4.30;2.28;;;;;;;32.91;33.63;98700.97;4993623;28;20520;-76
2022/06/26 09:47:35;;;;;;;4.75;2.53;;;;;;;32.78;34.02;98702.25;4994305;28;20465;-76
2022/06/26 09:50:02;;;;;;;4.05;2.10;;;;;;;32.71;34.32;98712.50;5011390;28;20087;-76
2022/06/26 09:52:29;;;;;;;3.85;2.42;;;;;;;32.58;34.68;98699.44;5010473;28;20034;-78
2022/06/26 09:54:55;;;;;;;3.60;2.00;;;;;;;32.49;34.69;98711.81;5010562;28;20046;-76
2022/06/26 09:57:20;;;;;;;5.00;2.40;;;;;;;32.31;35.20;98707.63;5010770;28;20026;-75
2022/06/26 09:59:46;;;;;;;4.30;2.40;;;;;;;32.17;35.48;98705.41;4994141;28;20034;-74
2022/06/26 10:07:52;;;;;;;4.65;2.20;;;;;;;31.76;36.07;98715.84;5011446;28;20464;-75
2022/06/26 10:10:20;;;;;;;5.25;2.35;;;;;;;31.66;36.25;98716.56;5009577;28;20022;-75
2022/06/26 10:12:48;;;;;;;3.78;2.22;;;;;;;31.55;36.25;98722.94;5010774;28;20121;-76
2022/06/26 10:15:15;;;;;;;4.43;2.25;;;;;;;31.48;36.65;98730.38;5011598;28;20542;-75
2022/06/26 10:18:01;;;;;;;3.33;2.17;;;;;;;31.36;36.75;98728.66;4994987;28;20071;-75
2022/06/26 10:20:28;;;;;;;4.53;2.33;;;;;;;31.23;35.93;98728.22;5013610;28;20033;-75
2022/06/26 10:22:53;;;;;;;6.85;2.30;;;;;;;31.12;36.57;98736.19;5011191;28;20261;-76
2022/06/26 10:25:29;;;;;;;4.00;2.28;;;;;;;31.00;36.84;98727.44;5011346;28;20064;-74
2022/06/26 10:27:55;;;;;;;4.32;2.60;;;;;;;30.92;36.89;98722.44;4994659;28;20026;-74
2022/06/26 10:30:22;;;;;;;3.38;2.33;;;;;;;30.85;36.85;98719.91;5011267;28;20041;-76
2022/06/26 10:33:09;;;;;;;6.50;2.63;;;;;;;30.75;37.55;98731.38;5011044;28;20477;-75
2022/06/26 10:35:42;;;;;;;6.53;2.97;;;;;;;30.67;37.79;98731.81;4995591;28;20753;-76
2022/06/26 10:38:21;;;;;;;6.97;2.55;;;;;;;30.49;37.98;98728.34;4994164;28;20448;-75
2022/06/26 10:43:42;;;;;;;3.72;2.45;;;;;;;30.38;38.53;98731.97;5011386;28;20044;-74
2022/06/26 10:46:08;;;;;;;5.57;2.85;;;;;;;30.41;38.93;98739.53;4995264;28;20477;-74
2022/06/26 10:48:33;;;;;;;7.38;2.85;;;;;;;30.46;38.35;98746.88;4994481;28;20030;-74
2022/06/26 10:51:03;;;;;;;4.88;2.60;;;;;;;30.44;38.25;98743.59;5010331;28;20042;-74
2022/06/26 10:53:29;;;;;;;4.20;2.50;;;;;;;30.52;37.53;98753.16;5010952;28;20042;-75
2022/06/26 10:55:59;;;;;;;3.90;2.22;;;;;;;30.54;37.22;98756.44;4994333;28;20025;-74
2022/06/26 10:58:30;;;;;;;3.60;2.60;;;;;;;30.65;36.87;98761.69;4994552;28;20511;-74
2022/06/26 11:00:57;;;;;;;7.97;2.55;;;;;;;30.74;35.78;98764.78;4994096;28;20050;-75
2022/06/26 11:03:22;;;;;;;5.07;2.30;;;;;;;30.77;35.60;98756.19;5013497;28;20045;-74
2022/06/26 11:05:56;;;;;;;10.70;2.17;;;;;;;30.60;34.72;98766.19;5014442;28;20034;-73
2022/06/26 11:08:32;;;;;;;3.90;1.83;;;;;;;30.34;34.08;98760.41;5014083;28;20053;-76
2022/06/26 11:11:06;;;;;;;7.57;1.85;;;;;;;30.33;34.06;98749.88;4996250;28;20053;-76
2022/06/26 11:13:32;;;;;;;7.65;1.88;;;;;;;30.39;34.87;98757.00;5012947;28;20109;-76
2022/06/26 11:15:57;;;;;;;2.80;1.80;;;;;;;30.44;34.72;98757.91;5013852;28;20026;-77
2022/06/26 11:18:23;;;;;;;5.97;2.30;;;;;;;30.45;35.23;98751.44;5014267;28;20036;-77
2022/06/26 11:20:50;;;;;;;6.10;1.90;;;;;;;30.52;35.40;98745.06;4997001;28;20417;-76
2022/06/26 11:23:18;;;;;;;4.22;1.80;;;;;;;30.38;34.98;98753.50;4997195;28;20034;-77
2022/06/26 11:25:44;;;;;;;4.00;1.83;;;;;;;30.29;35.71;98749.56;5014570;28;20382;-77
2022/06/26 11:28:10;;;;;;;5.60;2.00;;;;;;;30.11;35.75;98740.66;5013230;28;20033;-74
2022/06/26 11:30:39;;;;;;;4.90;2.03;;;;;;;30.14;36.26;98739.34;4995972;28;20033;-74
2022/06/26 11:33:06;;;;;;;4.72;2.28;;;;;;;30.21;36.78;98729.25;4997030;28;20038;-75
2022/06/26 11:35:34;;;;;;;4.10;1.88;;;;;;;30.22;36.70;98730.03;5012904;28;20022;-75
2022/06/26 11:38:07;;;;;;;5.57;2.05;;;;;;;30.21;36.62;98733.81;5012962;28;20045;-74
2022/06/26 11:40:33;;;;;;;3.53;2.10;;;;;;;30.18;37.32;98734.31;5013715;28;20038;-78
2022/06/26 11:42:58;;;;;;;3.65;1.95;;;;;;;30.25;37.07;98724.16;4997566;28;20608;-79
2022/06/26 11:45:24;;;;;;;4.22;2.10;;;;;;;30.27;36.76;98720.19;4996179;28;20041;-74